HKEL

Eldoret International Airport

Eldoret, Kenya
TAF HKEL 181700Z 1818/1918 12005KT CAVOK BECMG 1908/1911 09010KT 9999 FEW024CB SCT025
Issued Valid From Valid To
Dec-18 @ 17:00 UTC
(7 hours ago)
Dec-18 @ 18:00 UTC
(6 hours ago)
Dec-19 @ 18:00 UTC
(in 18 hours)
Dec-18 @ 18:00 to Dec-19 @ 08:00
TAF HKEL 181700Z 1818/1918 12005KT CAVOK
Wind Visibility Clouds Conditions
120° at 5 knots 10,000+ meters
  • No significant clouds
Becoming Dec-19 @ 08:00 to Dec-19 @ 18:00
BECMG 1908/1911 09010KT 9999 FEW024CB SCT025
Wind Visibility Clouds Conditions
90° at 10 knots 10,000+ meters
  • Few at 2,400' AGL
  • Scattered at 2,500' AGL
TAF HKEL 181700Z 1818/1918 12005KT CAVOK BECMG 1908/1911 09010KT 9999 FEW024CB SCT025
Issued Dec-18 @ 17:00 UTC
(7 hours ago)
Valid From Dec-18 @ 18:00 UTC
(6 hours ago)
Valid To Dec-19 @ 18:00 UTC
(in 18 hours)
Dec-18 @ 18:00 - Dec-19 @ 08:00
Wind Visibility
120° at 5 knots 10,000+ meters
Clouds
  • No significant clouds
Conditions
Becoming Dec-19 @ 08:00 - Dec-19 @ 18:00
Wind Visibility
90° at 10 knots 10,000+ meters
Clouds
  • Few at 2,400' AGL
  • Scattered at 2,500' AGL
Conditions